^^
Datos históricos de la estación: Murcia-Puente Tocinos
Diario Informe para Noviembre 24, 2021 Unidades:  Ingés    Métrico   Ambas
Diario Semanal Mensual Anual
  Máxima: Mínima: Promedio:
Temperatura: 58.6 °F 47.5 °F 52 °F
Punto de rocio: 43.7 °F 33.3 °F 38.3 °F
Humedad: 83.6% 39% 62%
Velocidad viento: 10.7mph 0mph 5.5mph
Racha viento: 23.5mph - -
Viento- - OSO
Presión: 29.9 in 29.8 in -
Precipitación: 0.01 in    
 
 
Tabla de datos para Noviembre 24, 2021
Hora Temperatura Punto de rocio Presión Viento Velocidad viento Racha viento Humedad Intensidad lluvia(por hora) Nubes
00:04 49.5 °F 40.5 °F 29.8 in Sur 3.6 mph 6.2 mph 71% 0 in
00:09 49.5 °F 40.5 °F 29.8 in SSE 3.7 mph 6.9 mph 71% 0 in
00:14 49.3 °F 40.3 °F 29.8 in Sur 4 mph 8.1 mph 71% 0 in
00:19 49.3 °F 40.3 °F 29.8 in Sur 4.4 mph 6.9 mph 71% 0 in
00:24 49.5 °F 40.5 °F 29.8 in SSO 5.2 mph 7.4 mph 71% 0 in
00:29 49.6 °F 40.3 °F 29.8 in SSO 5.2 mph 6.9 mph 70.1% 0 in
00:34 49.6 °F 40.1 °F 29.8 in SSO 5.2 mph 9.2 mph 69.4% 0 in
00:39 50 °F 40.3 °F 29.8 in SSO 5.3 mph 9.2 mph 69% 0 in
00:44 50.2 °F 40.1 °F 29.8 in SSO 5.4 mph 9.2 mph 68.1% 0 in
00:49 50.2 °F 40.3 °F 29.8 in SSO 5.6 mph 8.5 mph 68.6% 0 in
00:54 50.2 °F 39.9 °F 29.8 in SSO 5.9 mph 9.7 mph 68% 0 in
00:59 50 °F 39.9 °F 29.8 in SSO 6 mph 10.4 mph 68% 0 in
01:04 50 °F 39.6 °F 29.8 in SSO 6.2 mph 11.5 mph 67.2% 0 in
01:09 50 °F 39.6 °F 29.8 in SSO 6.3 mph 10.7 mph 67% 0 in
01:14 50 °F 39.6 °F 29.8 in SO 6.4 mph 11.5 mph 67% 0 in
01:19 50.4 °F 39.7 °F 29.8 in SSO 6.3 mph 13.8 mph 67% 0 in
01:24 50.5 °F 39.9 °F 29.8 in SSO 6.2 mph 14.7 mph 67% 0 in
01:29 50.5 °F 40.1 °F 29.8 in SSO 6.5 mph 15 mph 67.4% 0 in
01:34 50.5 °F 40.3 °F 29.8 in Sur 6.9 mph 13.8 mph 68% 0 in
01:39 50.4 °F 40.6 °F 29.9 in Sur 7.1 mph 12.7 mph 69.4% 0 in
01:44 50.2 °F 41 °F 29.9 in SSO 7.4 mph 14.5 mph 70.8% 0 in
01:49 50.2 °F 41.5 °F 29.9 in SSO 7.6 mph 15.2 mph 72% 0 in
01:54 50.4 °F 41.9 °F 29.9 in SO 8.1 mph 17.3 mph 72.7% 0 in
01:59 50 °F 42.3 °F 29.9 in SO 8.8 mph 18.4 mph 74.7% 0.01 in
02:04 49.6 °F 42.6 °F 29.9 in OSO 10 mph 17.3 mph 76.6% 0.01 in
02:09 49.5 °F 42.8 °F 29.9 in OSO 9.9 mph 18.4 mph 77.9% 0.01 in
02:14 49.3 °F 43 °F 29.9 in SO 9.7 mph 12.7 mph 78.9% 0.01 in
02:19 49.1 °F 43.2 °F 29.9 in SO 8.8 mph 10.7 mph 79.8% 0.01 in
02:24 49.1 °F 43.2 °F 29.9 in SSO 6.9 mph 8.1 mph 80.2% 0.01 in
02:29 48.9 °F 43.3 °F 29.9 in SO 6.4 mph 10.7 mph 81% 0.01 in
02:34 48.9 °F 43.3 °F 29.9 in SO 5.4 mph 10.4 mph 81% 0.01 in
02:39 48.9 °F 43.5 °F 29.9 in SO 5.2 mph 8.1 mph 81.4% 0.01 in
02:44 48.9 °F 43.7 °F 29.9 in SO 4.7 mph 8.1 mph 82% 0.01 in
02:49 48.9 °F 43.7 °F 29.9 in SSO 4.7 mph 8.1 mph 82% 0.01 in
02:54 48.9 °F 43.7 °F 29.9 in OSO 4.7 mph 8.5 mph 82% 0.01 in
02:59 48.7 °F 43.5 °F 29.9 in SO 4.5 mph 8.1 mph 82% 0.01 in
03:04 48.7 °F 43.5 °F 29.9 in SSO 4 mph 6.9 mph 82% 0 in
03:09 48.7 °F 43.5 °F 29.9 in SSO 4 mph 8.5 mph 82% 0 in
03:14 48.7 °F 43.5 °F 29.8 in SSO 4 mph 7.4 mph 82% 0 in
03:19 48.6 °F 43.3 °F 29.8 in SSO 4.2 mph 10.2 mph 82% 0 in
03:24 48.6 °F 43.5 °F 29.9 in SSO 4.7 mph 10.7 mph 82.9% 0 in
03:29 48.4 °F 43.5 °F 29.9 in SSO 5.4 mph 10.7 mph 83.3% 0 in
03:34 48.4 °F 43.7 °F 29.9 in SSO 6.9 mph 10.7 mph 83.6% 0 in
03:39 48.4 °F 43.5 °F 29.9 in SO 6.7 mph 10.7 mph 83% 0 in
03:44 48.6 °F 43.5 °F 29.9 in SSO 6.4 mph 10.7 mph 83% 0 in
03:49 48.6 °F 43.3 °F 29.9 in SSO 6.4 mph 12.7 mph 82.3% 0 in
03:54 48.6 °F 43.3 °F 29.9 in SSO 6.4 mph 10.4 mph 82% 0 in
03:59 48.6 °F 43.3 °F 29.9 in SO 6 mph 10.4 mph 82% 0 in
04:04 48.6 °F 43.2 °F 29.9 in SO 5.2 mph 10.4 mph 81.6% 0 in
04:09 48.6 °F 43 °F 29.9 in SO 5.2 mph 8.1 mph 81% 0 in
04:14 48.6 °F 43 °F 29.9 in SO 5.2 mph 7.4 mph 81% 0 in
04:19 48.6 °F 43 °F 29.9 in SSO 4.8 mph 6.2 mph 80.7% 0 in
04:24 48.6 °F 42.6 °F 29.9 in Sur 4 mph 6.2 mph 80% 0 in
04:29 48.6 °F 42.6 °F 29.9 in SSO 3.9 mph 6.2 mph 80% 0 in
04:34 48.4 °F 42.4 °F 29.9 in SO 3.6 mph 5.9 mph 80% 0 in
04:39 48.4 °F 42.4 °F 29.9 in SO 4 mph 15.6 mph 79.5% 0 in
04:44 48.6 °F 41.9 °F 29.9 in SO 4.7 mph 16.1 mph 77.7% 0 in
04:49 48.6 °F 41.7 °F 29.9 in SSO 5.5 mph 11.5 mph 77% 0 in
04:54 48.6 °F 41.7 °F 29.9 in SO 6.9 mph 14.7 mph 77% 0 in
04:59 48.6 °F 41.5 °F 29.9 in SO 6.9 mph 15 mph 77% 0 in
05:04 48.4 °F 41.5 °F 29.9 in SO 6.9 mph 11.5 mph 77% 0 in
05:09 48.2 °F 41.4 °F 29.9 in SO 6.7 mph 10.7 mph 77% 0 in
05:14 48 °F 41.2 °F 29.9 in OSO 6.4 mph 11.5 mph 77% 0 in
05:19 48 °F 41.2 °F 29.9 in OSO 6.6 mph 11.5 mph 77% 0 in
05:24 48 °F 41.2 °F 29.9 in SO 6.9 mph 13.8 mph 77% 0 in
05:29 48 °F 41.2 °F 29.9 in SO 7.1 mph 13.8 mph 77% 0 in
05:34 48 °F 41.2 °F 29.9 in SSO 7.4 mph 13 mph 77% 0 in
05:39 47.8 °F 41 °F 29.9 in SO 7.2 mph 11.5 mph 77% 0 in
05:44 47.8 °F 40.8 °F 29.9 in SO 6.9 mph 15 mph 76.7% 0 in
05:49 48 °F 40.8 °F 29.9 in SO 7.1 mph 11.5 mph 76% 0 in
05:54 48 °F 40.8 °F 29.9 in SO 7.4 mph 9.2 mph 76% 0 in
05:59 48 °F 40.8 °F 29.9 in SO 7 mph 10.4 mph 76% 0 in
06:04 47.8 °F 40.6 °F 29.9 in SSO 6.2 mph 11.8 mph 76% 0 in
06:09 47.8 °F 40.6 °F 29.9 in SO 6.2 mph 11.5 mph 76% 0 in
06:14 47.8 °F 40.6 °F 29.9 in SO 6.2 mph 11.5 mph 76.1% 0 in
06:19 47.7 °F 40.8 °F 29.9 in SSO 6.2 mph 10.4 mph 77% 0 in
06:24 47.7 °F 40.8 °F 29.9 in SSO 6.2 mph 11.8 mph 77% 0 in
06:29 47.7 °F 40.8 °F 29.9 in SSO 6.6 mph 10.4 mph 77% 0 in
06:34 47.7 °F 40.8 °F 29.9 in SO 7.4 mph 9.2 mph 77% 0 in
06:39 47.7 °F 40.8 °F 29.9 in SSO 6.7 mph 6.9 mph 77% 0 in
06:44 47.7 °F 40.8 °F 29.9 in SO 5.2 mph 11.4 mph 77% 0 in
06:49 47.7 °F 40.6 °F 29.9 in SO 5.4 mph 11.5 mph 76.2% 0 in
06:54 47.8 °F 40.5 °F 29.9 in SSO 5.9 mph 9.7 mph 75.7% 0 in
06:59 47.8 °F 40.3 °F 29.9 in SO 5.7 mph 8.1 mph 75% 0 in
07:04 47.8 °F 40.3 °F 29.9 in SSO 5.4 mph 10 mph 75% 0 in
07:09 47.8 °F 40.3 °F 29.9 in SO 5.6 mph 13 mph 74.7% 0 in
07:14 47.8 °F 40.1 °F 29.9 in SO 5.9 mph 13 mph 74.1% 0 in
07:19 47.8 °F 39.9 °F 29.9 in SO 6.1 mph 12.7 mph 74% 0 in
07:24 47.8 °F 39.9 °F 29.9 in SO 6.4 mph 12.7 mph 74% 0 in
07:29 47.8 °F 40.1 °F 29.9 in SO 6.3 mph 10.7 mph 74.6% 0 in
07:34 47.7 °F 40.1 °F 29.9 in SO 6.2 mph 10.4 mph 75% 0 in
07:39 47.7 °F 40.3 °F 29.9 in SO 5.8 mph 6.9 mph 75.6% 0 in
07:44 47.7 °F 40.5 °F 29.9 in OSO 5.2 mph 9.2 mph 76% 0 in
07:49 47.5 °F 40.3 °F 29.9 in SO 5.3 mph 11.5 mph 76% 0 in
07:54 47.5 °F 40.3 °F 29.9 in SSO 5.4 mph 7.4 mph 76% 0 in
07:59 47.5 °F 40.3 °F 29.9 in SO 4.9 mph 5.9 mph 76% 0 in
08:04 47.5 °F 40.3 °F 29.9 in SSO 4 mph 5.9 mph 76% 0 in
08:09 47.5 °F 40.3 °F 29.9 in OSO 3.7 mph 5.8 mph 76% 0 in
08:14 47.5 °F 40.3 °F 29.9 in OSO 3.1 mph 6.9 mph 76.1% 0 in
08:19 47.5 °F 40.3 °F 29.9 in OSO 3.3 mph 7.6 mph 76% 0 in
08:24 47.7 °F 40.1 °F 29.9 in OSO 3.6 mph 8.1 mph 75.2% 0 in
08:29 47.8 °F 40.3 °F 29.9 in SO 3.9 mph 7.4 mph 74.8% 0 in
08:34 48 °F 40.1 °F 29.9 in SO 4.3 mph 6.9 mph 74% 0 in
08:39 48.4 °F 40.5 °F 29.9 in SO 4 mph 4.7 mph 74% 0 in
08:44 48.6 °F 40.6 °F 29.9 in SO 3.6 mph 4.7 mph 74% 0 in
08:49 48.6 °F 40.6 °F 29.9 in SO 3.4 mph 5.8 mph 74% 0 in
08:54 48.7 °F 40.6 °F 29.9 in OSO 2.9 mph 6.9 mph 73.5% 0 in
08:59 48.7 °F 40.5 °F 29.9 in Oeste 3.3 mph 8.1 mph 73.1% 0 in
09:04 48.7 °F 40.5 °F 29.9 in Oeste 4 mph 10.4 mph 73% 0 in
09:09 48.6 °F 40.6 °F 29.9 in Oeste 4.4 mph 8.1 mph 73.9% 0 in
09:14 48.6 °F 40.6 °F 29.9 in OSO 5.2 mph 7.4 mph 74% 0 in
09:19 48.7 °F 40.8 °F 29.9 in OSO 5 mph 9.2 mph 74% 0 in
09:24 48.7 °F 40.6 °F 29.9 in OSO 4.7 mph 8.1 mph 73.6% 0 in
09:29 48.7 °F 40.6 °F 29.9 in OSO 4.6 mph 6.9 mph 73.4% 0 in
09:34 48.9 °F 40.5 °F 29.9 in OSO 4.3 mph 8.1 mph 72.3% 0 in
09:39 49.1 °F 40.5 °F 29.9 in OSO 4.3 mph 6.9 mph 72% 0 in
09:44 49.3 °F 40.6 °F 29.9 in OSO 4.3 mph 8.1 mph 72% 0 in
09:49 49.5 °F 40.6 °F 29.9 in OSO 4.3 mph 9.7 mph 71.9% 0 in
09:54 49.6 °F 40.8 °F 29.9 in Oeste 4.3 mph 9.2 mph 71.7% 0 in
09:59 49.6 °F 40.6 °F 29.9 in Oeste 4.9 mph 9.2 mph 71% 0 in
10:04 49.8 °F 40.8 °F 29.9 in Oeste 5.9 mph 11.4 mph 70.9% 0 in
10:09 49.8 °F 40.5 °F 29.9 in Oeste 6 mph 11.5 mph 70.2% 0 in
10:14 50 °F 40.8 °F 29.9 in OSO 6.2 mph 10.4 mph 70.2% 0 in
10:19 50.4 °F 40.8 °F 29.9 in OSO 6.2 mph 10.7 mph 70% 0 in
10:24 50.5 °F 40.8 °F 29.9 in OSO 6.2 mph 11.5 mph 69.2% 0 in
10:29 50.7 °F 40.5 °F 29.9 in OSO 6.2 mph 10.4 mph 68% 0 in
10:34 51.1 °F 40.5 °F 29.9 in OSO 6.2 mph 8.1 mph 67.3% 0 in
10:39 51.3 °F 40.6 °F 29.9 in OSO 5.8 mph 8.1 mph 66.9% 0 in
10:44 51.4 °F 40.6 °F 29.9 in OSO 5.2 mph 9.2 mph 66.1% 0 in
10:49 52 °F 40.6 °F 29.9 in OSO 4.9 mph 6.9 mph 65.6% 0 in
10:54 52.2 °F 40.5 °F 29.9 in OSO 4.3 mph 6.9 mph 64.3% 0 in
10:59 52.3 °F 40.5 °F 29.9 in SSO 4.2 mph 8.5 mph 63.9% 0 in
11:04 52.5 °F 39.9 °F 29.9 in OSO 4 mph 10.4 mph 62.1% 0 in
11:09 52.5 °F 40.1 °F 29.9 in Oeste 4.6 mph 8.1 mph 62.4% 0 in
11:14 52.9 °F 39.6 °F 29.9 in ONO 5.9 mph 11.8 mph 60.4% 0 in
11:19 53.1 °F 39.2 °F 29.9 in ONO 6.4 mph 11.5 mph 59.4% 0 in
11:24 53.2 °F 39 °F 29.9 in ONO 7.4 mph 15.2 mph 58.5% 0 in
11:29 53.4 °F 38.8 °F 29.9 in ONO 7.4 mph 12.7 mph 57.8% 0 in
11:34 53.4 °F 38.8 °F 29.9 in ONO 7.4 mph 12.7 mph 57.4% 0 in
11:39 53.6 °F 39 °F 29.9 in ONO 7.5 mph 13.8 mph 57.6% 0 in
11:44 53.8 °F 39 °F 29.9 in ONO 7.6 mph 11.4 mph 57.4% 0 in
11:49 54.1 °F 38.1 °F 29.9 in ONO 7.4 mph 15.2 mph 54.8% 0 in
11:54 54.3 °F 37.8 °F 29.9 in ONO 6.9 mph 15.2 mph 53.4% 0 in
11:59 54.7 °F 37.4 °F 29.9 in ONO 7.8 mph 17.5 mph 51.9% 0 in
12:04 54.7 °F 37.4 °F 29.9 in Oeste 9.2 mph 12.7 mph 52% 0 in
12:09 54.9 °F 37.4 °F 29.9 in Oeste 8.1 mph 9.2 mph 51.6% 0 in
12:14 55 °F 37.2 °F 29.9 in OSO 6.2 mph 8.1 mph 51% 0 in
12:19 55.6 °F 37.2 °F 29.9 in Oeste 6.2 mph 16.1 mph 50% 0 in
12:24 55.8 °F 36.5 °F 29.9 in Oeste 6.2 mph 15 mph 48.3% 0 in
12:29 55.9 °F 36.7 °F 29.9 in ONO 6.8 mph 15 mph 48.2% 0 in
12:34 56.1 °F 36.5 °F 29.9 in Oeste 8.1 mph 17.5 mph 47.6% 0 in
12:39 56.3 °F 36.5 °F 29.9 in ONO 8.6 mph 20.8 mph 47.4% 0 in
12:44 56.5 °F 36.3 °F 29.9 in Oeste 9.7 mph 20.7 mph 46.9% 0 in
12:49 56.5 °F 36.5 °F 29.9 in Oeste 9.5 mph 15 mph 47% 0 in
12:54 56.8 °F 36.5 °F 29.9 in OSO 9.2 mph 17.3 mph 46.4% 0 in
12:59 56.8 °F 36.1 °F 29.9 in OSO 9.5 mph 17.3 mph 45.7% 0 in
13:04 57 °F 36 °F 29.9 in OSO 10 mph 17.5 mph 45.3% 0 in
13:09 57 °F 35.8 °F 29.9 in ONO 10 mph 18.4 mph 45% 0 in
13:14 57 °F 35.6 °F 29.9 in ONO 10 mph 18.4 mph 44.5% 0 in
13:19 57 °F 36 °F 29.9 in ONO 10 mph 21.9 mph 45% 0 in
13:24 57.2 °F 35.6 °F 29.9 in NO 10 mph 16.3 mph 44.4% 0 in
13:29 57 °F 35.6 °F 29.9 in ONO 10.1 mph 20.8 mph 44.4% 0 in
13:34 57.4 °F 35.8 °F 29.9 in ONO 10.2 mph 16.1 mph 44.5% 0 in
13:39 57.4 °F 35.4 °F 29.9 in Oeste 9.9 mph 18.4 mph 43.9% 0 in
13:44 57.2 °F 35.8 °F 29.9 in ONO 9.2 mph 19.2 mph 44.5% 0 in
13:49 56.8 °F 35.2 °F 29.9 in Oeste 9.7 mph 19.6 mph 44.2% 0 in
13:54 56.7 °F 35.1 °F 29.9 in Oeste 10.7 mph 17.3 mph 44.3% 0 in
13:59 56.8 °F 34.9 °F 29.9 in ONO 10.5 mph 23.5 mph 43.8% 0 in
14:04 56.8 °F 34.9 °F 29.9 in ONO 10.2 mph 17.3 mph 43.5% 0 in
14:09 57 °F 35.2 °F 29.9 in ONO 10.2 mph 18.5 mph 43.8% 0 in
14:14 57.6 °F 35.1 °F 29.9 in Oeste 10.2 mph 19 mph 42.9% 0 in
14:19 57.7 °F 34.9 °F 29.9 in Oeste 10 mph 18.4 mph 42% 0 in
14:24 57.9 °F 34.9 °F 29.9 in Oeste 9.7 mph 13.8 mph 41.9% 0 in
14:29 58.3 °F 34.9 °F 29.9 in OSO 9.1 mph 16.3 mph 41.6% 0 in
14:34 58.3 °F 34.9 °F 29.9 in Oeste 8.1 mph 16.1 mph 41.3% 0 in
14:39 58.6 °F 35.1 °F 29.9 in OSO 8 mph 13.8 mph 41.2% 0 in
14:44 58.5 °F 34.7 °F 29.9 in Oeste 7.6 mph 17.3 mph 40.7% 0 in
14:49 58.3 °F 34.3 °F 29.9 in ONO 8.3 mph 17.5 mph 40.5% 0 in
14:54 58.3 °F 34.2 °F 29.9 in Oeste 9.7 mph 19.7 mph 40.1% 0 in
14:59 58.3 °F 33.4 °F 29.9 in Oeste 9.8 mph 18.4 mph 39% 0 in
15:04 58.3 °F 34 °F 29.9 in Oeste 10 mph 16.8 mph 40% 0 in
15:09 57.9 °F 33.6 °F 29.9 in ONO 9.6 mph 17.3 mph 39.9% 0 in
15:14 57.6 °F 34 °F 29.8 in ONO 8.7 mph 18.4 mph 40.7% 0 in
15:19 57.4 °F 33.8 °F 29.8 in ONO 8.9 mph 23 mph 40.8% 0 in
15:24 57.4 °F 33.3 °F 29.8 in ONO 9.2 mph 17.3 mph 40.1% 0 in
15:29 57.2 °F 33.3 °F 29.8 in Oeste 9.5 mph 16.1 mph 40.4% 0 in
15:34 57 °F 33.4 °F 29.8 in ONO 10 mph 17.3 mph 40.9% 0 in
15:39 57 °F 33.6 °F 29.8 in ONO 9.2 mph 15 mph 41.2% 0 in
15:44 57 °F 34.2 °F 29.8 in ONO 7.6 mph 11.8 mph 42% 0 in
15:49 57 °F 34.2 °F 29.8 in ONO 7.8 mph 14 mph 42% 0 in
15:54 57 °F 34.2 °F 29.8 in ONO 8.1 mph 15 mph 42% 0 in
15:59 56.8 °F 34 °F 29.8 in ONO 8.1 mph 15.2 mph 41.8% 0 in
16:04 56.8 °F 33.6 °F 29.8 in ONO 8.1 mph 17.5 mph 41.2% 0 in
16:09 56.8 °F 33.4 °F 29.8 in ONO 8.3 mph 15.2 mph 41% 0 in
16:14 56.8 °F 34 °F 29.8 in ONO 8.7 mph 11.5 mph 42% 0 in
16:19 56.8 °F 34.3 °F 29.8 in Oeste 7.8 mph 9.2 mph 42.5% 0 in
16:24 56.8 °F 34.5 °F 29.8 in Oeste 6.2 mph 10.7 mph 43% 0 in
16:29 56.7 °F 34.3 °F 29.8 in Oeste 6.1 mph 12.7 mph 43% 0 in
16:34 56.7 °F 34.3 °F 29.8 in Oeste 5.9 mph 11.8 mph 42.9% 0 in
16:39 56.7 °F 34.5 °F 29.8 in Oeste 5.7 mph 6.2 mph 43.1% 0 in
16:44 56.7 °F 34.5 °F 29.8 in OSO 5.2 mph 7.4 mph 43.2% 0 in
16:49 56.7 °F 34.3 °F 29.8 in OSO 5 mph 10.4 mph 43% 0 in
16:54 56.7 °F 34.3 °F 29.8 in OSO 4.7 mph 8.1 mph 43% 0 in
16:59 56.7 °F 34.5 °F 29.8 in OSO 4.3 mph 9.2 mph 43.2% 0 in
17:04 56.5 °F 34.5 °F 29.8 in OSO 3.6 mph 8.1 mph 43.6% 0 in
17:09 56.5 °F 34.7 °F 29.8 in Oeste 3.9 mph 10.7 mph 43.7% 0 in
17:14 56.3 °F 34.3 °F 29.8 in OSO 4.3 mph 10.4 mph 43.5% 0 in
17:19 56.1 °F 34 °F 29.8 in Oeste 4.3 mph 9.2 mph 43.2% 0 in
17:24 56.1 °F 33.8 °F 29.8 in Oeste 4.3 mph 9.2 mph 43% 0 in
17:29 55.9 °F 33.8 °F 29.8 in Oeste 4.7 mph 8.5 mph 43.1% 0 in
17:34 55.8 °F 33.6 °F 29.8 in ONO 5.4 mph 8.1 mph 43% 0 in
17:39 55.8 °F 34 °F 29.8 in ONO 5 mph 8.7 mph 43.7% 0 in
17:44 55.6 °F 34 °F 29.8 in ONO 4.3 mph 9.2 mph 44% 0 in
17:49 55.2 °F 34 °F 29.8 in ONO 4.7 mph 9.2 mph 44.3% 0 in
17:54 55 °F 34.2 °F 29.8 in ONO 5.4 mph 10.4 mph 45% 0 in
17:59 54.9 °F 34 °F 29.8 in ONO 5.7 mph 9.7 mph 45% 0 in
18:04 54.9 °F 34.2 °F 29.8 in ONO 6.2 mph 9.2 mph 45.5% 0 in
18:09 54.7 °F 34.3 °F 29.8 in ONO 5.9 mph 9.2 mph 46% 0 in
18:14 54.3 °F 34.5 °F 29.8 in ONO 5.4 mph 9.2 mph 47% 0 in
18:19 54.1 °F 34.9 °F 29.8 in ONO 5.4 mph 9.7 mph 47.7% 0 in
18:24 54.1 °F 35.1 °F 29.8 in ONO 5.4 mph 6.9 mph 48.4% 0 in
18:29 54 °F 35.2 °F 29.8 in ONO 5.4 mph 9.2 mph 49% 0 in
18:34 54 °F 35.1 °F 29.8 in ONO 5.4 mph 8.1 mph 49% 0 in
18:39 53.8 °F 35.1 °F 29.8 in ONO 5.7 mph 10.4 mph 49% 0 in
18:44 53.8 °F 35.1 °F 29.8 in ONO 6.2 mph 9.7 mph 49% 0 in
18:49 53.8 °F 35.1 °F 29.8 in Oeste 5.8 mph 9.2 mph 49% 0 in
18:54 53.8 °F 35.1 °F 29.8 in ONO 5.2 mph 6.2 mph 49% 0 in
18:59 53.8 °F 35.1 °F 29.8 in Oeste 4.4 mph 4.7 mph 49% 0 in
19:04 53.8 °F 35.1 °F 29.8 in OSO 3.1 mph 4.6 mph 49% 0 in
19:09 53.8 °F 35.1 °F 29.8 in OSO 2.7 mph 2.9 mph 49% 0 in
19:14 53.8 °F 35.2 °F 29.8 in OSO 2 mph 2.9 mph 49.2% 0 in
19:19 53.8 °F 35.6 °F 29.8 in ONO 1.9 mph 3.6 mph 50% 0 in
19:24 53.6 °F 35.8 °F 29.8 in NNO 1.8 mph 4.6 mph 50.9% 0 in
19:29 53.4 °F 36.1 °F 29.8 in NO 1.9 mph 3.5 mph 52% 0 in
19:34 53.2 °F 36 °F 29.8 in NO 2 mph 2.4 mph 52% 0 in
19:39 53.1 °F 36 °F 29.8 in ONO 1.8 mph 3.6 mph 52% 0 in
19:44 52.9 °F 35.8 °F 29.8 in SO 1.4 mph 4.7 mph 52% 0 in
19:49 52.9 °F 35.8 °F 29.8 in SO 1.9 mph 4.7 mph 52% 0 in
19:54 53.1 °F 35.8 °F 29.8 in Sur 2.9 mph 4.6 mph 52% 0 in
19:59 53.1 °F 36.1 °F 29.8 in SE 2.9 mph 3.6 mph 52.4% 0 in
20:04 53.1 °F 36.3 °F 29.8 in SSE 2.9 mph 5.2 mph 53% 0 in
20:09 53.1 °F 36.7 °F 29.8 in SSE 2.7 mph 3.5 mph 53.7% 0 in
20:14 53.1 °F 36.9 °F 29.8 in SSE 2.4 mph 2.3 mph 54% 0 in
20:19 52.9 °F 36.7 °F 29.8 in SSE 2.1 mph 2.9 mph 54% 0 in
20:24 52.9 °F 36.7 °F 29.8 in SSE 1.4 mph 3.5 mph 54% 0 in
20:29 52.9 °F 36.7 °F 29.8 in SSE 1.6 mph 3.5 mph 54% 0 in
20:34 53.1 °F 37.2 °F 29.8 in SSE 2 mph 3.5 mph 54.7% 0 in
20:39 53.1 °F 37 °F 29.8 in SE 2 mph 3.6 mph 54.5% 0 in
20:44 52.9 °F 37 °F 29.8 in SE 2 mph 3.6 mph 54.7% 0 in
20:49 52.9 °F 37.2 °F 29.8 in SE 1.9 mph 2.4 mph 55.2% 0 in
20:54 52.7 °F 37.4 °F 29.8 in SSE 1.8 mph 3.1 mph 56% 0 in
20:59 52.5 °F 37 °F 29.8 in SO 1.8 mph 3.6 mph 55.6% 0 in
21:04 52.5 °F 37 °F 29.8 in Oeste 1.8 mph 3.5 mph 55.7% 0 in
21:09 52.3 °F 37 °F 29.8 in ONO 1.8 mph 2.4 mph 55.8% 0 in
21:14 52.3 °F 37 °F 29.8 in ONO 1.8 mph 2.3 mph 56% 0 in
21:19 52.2 °F 37 °F 29.8 in ONO 1.2 mph 2.4 mph 56% 0 in
21:24 52.2 °F 36.9 °F 29.8 in Calm   3.6 mph 56% 0 in
21:29 52.2 °F 37 °F 29.8 in OSO 0.6 mph 4.3 mph 56.2% 0 in
21:34 52 °F 37 °F 29.8 in OSO 1.8 mph 4.6 mph 56.8% 0 in
21:39 52 °F 37 °F 29.8 in OSO 2 mph 4.6 mph 57% 0 in
21:44 51.6 °F 36.9 °F 29.8 in Oeste 2.4 mph 5.4 mph 56.8% 0 in
21:49 51.6 °F 36.5 °F 29.8 in ONO 2.6 mph 5.8 mph 56% 0 in
21:54 51.6 °F 36.1 °F 29.8 in ONO 3.1 mph 5.2 mph 55.4% 0 in
21:59 51.4 °F 35.8 °F 29.8 in Oeste 3.1 mph 5.2 mph 55% 0 in
22:04 51.4 °F 36.1 °F 29.8 in OSO 3.1 mph 3.6 mph 55.8% 0 in
22:09 51.4 °F 36.1 °F 29.8 in SO 2.7 mph 5.4 mph 55.8% 0 in
22:14 51.3 °F 36.1 °F 29.8 in SSO 2 mph 5.9 mph 56% 0 in
22:19 51.3 °F 36.7 °F 29.8 in SSE 2.7 mph 8.5 mph 57.2% 0 in
22:24 51.1 °F 37.8 °F 29.8 in SSE 4 mph 8.1 mph 60.4% 0 in
22:29 50.7 °F 37.8 °F 29.8 in Sur 3.9 mph 4.6 mph 61% 0 in
22:34 50.7 °F 37.8 °F 29.8 in Sur 3.6 mph 2.4 mph 61% 0 in
22:39 50.5 °F 37.8 °F 29.8 in Sur 2.4 mph 2.4 mph 61.4% 0 in
22:44 50.5 °F 37.9 °F 29.8 in Calm   2.9 mph 61.9% 0 in
22:49 50.5 °F 37.8 °F 29.8 in Sur 0.6 mph 3.1 mph 61.3% 0 in
22:54 50.5 °F 37.8 °F 29.8 in Sur 1.8 mph 3.5 mph 61.4% 0 in
22:59 50.7 °F 38.1 °F 29.8 in Sur 1.8 mph 2.9 mph 62% 0 in
23:04 50.5 °F 38.3 °F 29.8 in Sur 1.8 mph 2.3 mph 62.8% 0 in
23:09 50.5 °F 37.9 °F 29.8 in SSO 1.2 mph 2.9 mph 62% 0 in
23:14 50.4 °F 37.8 °F 29.8 in Calm   4.6 mph 62% 0 in
23:19 50.4 °F 37.4 °F 29.8 in SO 0.9 mph 4 mph 61.1% 0 in
23:24 50.2 °F 37.4 °F 29.8 in SSE 2.4 mph 4.6 mph 61.3% 0 in
23:29 50.4 °F 38.5 °F 29.8 in SSE 2.5 mph 4.6 mph 63.8% 0 in
23:34 50.4 °F 39 °F 29.8 in SSE 2.9 mph 2.4 mph 65% 0 in
23:39 50 °F 38.7 °F 29.8 in SSO 2.5 mph 3.6 mph 65% 0 in
23:44 49.6 °F 38.1 °F 29.8 in OSO 1.8 mph 4.6 mph 64.2% 0 in
Murcia-Puente Tocinos, Espa?a
Compliments of Weather Underground - 3 mb

La estación de MeteoMurcia.com, publica sus datos en los siguientes proyectos:

Weather Underground PWS IMURCIAP2 Meteoclimatic www.awekas.at

W3Counter
Web Analytics